sensor_id;sensor_type;location;lat;lon;timestamp;P1;durP1;ratioP1;P2;durP2;ratioP2
60917;SDS011;46792;38.854;-9.384;2023-04-24T00:05:47;19.60;;;3.72;;
60917;SDS011;46792;38.854;-9.384;2023-04-24T00:08:52;14.20;;;3.97;;
60917;SDS011;46792;38.854;-9.384;2023-04-24T00:11:51;16.95;;;4.28;;
60917;SDS011;46792;38.854;-9.384;2023-04-24T00:15:10;11.82;;;3.40;;
60917;SDS011;46792;38.854;-9.384;2023-04-24T00:18:09;12.63;;;3.80;;
60917;SDS011;46792;38.854;-9.384;2023-04-24T00:21:08;14.75;;;3.40;;
60917;SDS011;46792;38.854;-9.384;2023-04-24T00:24:26;21.50;;;5.05;;
60917;SDS011;46792;38.854;-9.384;2023-04-24T00:27:25;15.27;;;3.97;;
60917;SDS011;46792;38.854;-9.384;2023-04-24T00:30:24;17.33;;;3.70;;
60917;SDS011;46792;38.854;-9.384;2023-04-24T00:33:23;18.27;;;3.90;;
60917;SDS011;46792;38.854;-9.384;2023-04-24T00:36:22;12.80;;;3.80;;
60917;SDS011;46792;38.854;-9.384;2023-04-24T00:39:21;10.95;;;3.38;;
60917;SDS011;46792;38.854;-9.384;2023-04-24T00:42:21;11.00;;;3.58;;
60917;SDS011;46792;38.854;-9.384;2023-04-24T00:45:20;18.48;;;4.93;;
60917;SDS011;46792;38.854;-9.384;2023-04-24T00:48:19;14.77;;;3.67;;
60917;SDS011;46792;38.854;-9.384;2023-04-24T00:51:38;14.07;;;3.70;;
60917;SDS011;46792;38.854;-9.384;2023-04-24T00:54:37;19.45;;;4.97;;
60917;SDS011;46792;38.854;-9.384;2023-04-24T00:57:37;14.18;;;4.03;;
60917;SDS011;46792;38.854;-9.384;2023-04-24T01:00:36;17.85;;;4.53;;
60917;SDS011;46792;38.854;-9.384;2023-04-24T01:03:37;9.60;;;3.53;;
60917;SDS011;46792;38.854;-9.384;2023-04-24T01:06:39;21.02;;;4.45;;
60917;SDS011;46792;38.854;-9.384;2023-04-24T01:09:39;15.23;;;3.72;;
60917;SDS011;46792;38.854;-9.384;2023-04-24T01:12:40;16.73;;;3.70;;
60917;SDS011;46792;38.854;-9.384;2023-04-24T01:15:40;15.20;;;3.38;;
60917;SDS011;46792;38.854;-9.384;2023-04-24T01:18:58;12.43;;;3.72;;
60917;SDS011;46792;38.854;-9.384;2023-04-24T01:21:58;11.93;;;4.80;;
60917;SDS011;46792;38.854;-9.384;2023-04-24T01:24:57;11.48;;;4.22;;
60917;SDS011;46792;38.854;-9.384;2023-04-24T01:27:56;12.00;;;3.78;;
60917;SDS011;46792;38.854;-9.384;2023-04-24T01:30:56;18.48;;;4.38;;
60917;SDS011;46792;38.854;-9.384;2023-04-24T01:33:55;17.38;;;4.40;;
60917;SDS011;46792;38.854;-9.384;2023-04-24T01:36:55;14.25;;;3.72;;
60917;SDS011;46792;38.854;-9.384;2023-04-24T01:39:54;16.90;;;3.80;;
60917;SDS011;46792;38.854;-9.384;2023-04-24T01:42:53;14.15;;;4.28;;
60917;SDS011;46792;38.854;-9.384;2023-04-24T01:45:53;12.05;;;3.60;;
60917;SDS011;46792;38.854;-9.384;2023-04-24T01:48:54;8.52;;;3.58;;
60917;SDS011;46792;38.854;-9.384;2023-04-24T01:51:53;14.30;;;3.50;;
60917;SDS011;46792;38.854;-9.384;2023-04-24T01:54:52;11.13;;;3.90;;
60917;SDS011;46792;38.854;-9.384;2023-04-24T01:58:10;20.05;;;4.40;;
60917;SDS011;46792;38.854;-9.384;2023-04-24T02:05:05;13.05;;;3.65;;
60917;SDS011;46792;38.854;-9.384;2023-04-24T02:08:05;17.33;;;4.07;;
60917;SDS011;46792;38.854;-9.384;2023-04-24T02:11:22;12.35;;;4.07;;
60917;SDS011;46792;38.854;-9.384;2023-04-24T02:14:40;14.30;;;3.42;;
60917;SDS011;46792;38.854;-9.384;2023-04-24T02:17:40;11.00;;;3.42;;
60917;SDS011;46792;38.854;-9.384;2023-04-24T02:20:39;16.75;;;3.38;;
60917;SDS011;46792;38.854;-9.384;2023-04-24T02:23:38;12.23;;;3.72;;
60917;SDS011;46792;38.854;-9.384;2023-04-24T02:26:37;13.13;;;3.65;;
60917;SDS011;46792;38.854;-9.384;2023-04-24T02:29:39;12.93;;;3.72;;
60917;SDS011;46792;38.854;-9.384;2023-04-24T02:32:38;10.52;;;3.58;;
60917;SDS011;46792;38.854;-9.384;2023-04-24T02:35:38;8.77;;;3.28;;
60917;SDS011;46792;38.854;-9.384;2023-04-24T02:38:37;10.57;;;3.55;;
60917;SDS011;46792;38.854;-9.384;2023-04-24T02:41:36;20.73;;;3.78;;
60917;SDS011;46792;38.854;-9.384;2023-04-24T02:44:35;10.52;;;3.78;;
60917;SDS011;46792;38.854;-9.384;2023-04-24T02:47:53;17.27;;;3.63;;
60917;SDS011;46792;38.854;-9.384;2023-04-24T02:50:52;10.40;;;4.75;;
60917;SDS011;46792;38.854;-9.384;2023-04-24T02:53:51;19.23;;;4.65;;
60917;SDS011;46792;38.854;-9.384;2023-04-24T02:56:50;17.60;;;4.65;;
60917;SDS011;46792;38.854;-9.384;2023-04-24T02:59:50;18.55;;;4.18;;
60917;SDS011;46792;38.854;-9.384;2023-04-24T03:02:49;21.27;;;4.25;;
60917;SDS011;46792;38.854;-9.384;2023-04-24T03:05:49;11.07;;;3.80;;
60917;SDS011;46792;38.854;-9.384;2023-04-24T03:08:48;22.02;;;4.82;;
60917;SDS011;46792;38.854;-9.384;2023-04-24T03:11:49;14.13;;;3.67;;
60917;SDS011;46792;38.854;-9.384;2023-04-24T03:14:48;13.35;;;4.47;;
60917;SDS011;46792;38.854;-9.384;2023-04-24T03:17:47;13.57;;;4.30;;
60917;SDS011;46792;38.854;-9.384;2023-04-24T03:20:47;14.18;;;5.63;;
60917;SDS011;46792;38.854;-9.384;2023-04-24T03:23:50;16.60;;;5.43;;
60917;SDS011;46792;38.854;-9.384;2023-04-24T03:26:51;15.40;;;3.95;;
60917;SDS011;46792;38.854;-9.384;2023-04-24T03:30:12;15.05;;;4.50;;
60917;SDS011;46792;38.854;-9.384;2023-04-24T03:33:12;20.88;;;4.55;;
60917;SDS011;46792;38.854;-9.384;2023-04-24T03:36:11;10.98;;;3.90;;
60917;SDS011;46792;38.854;-9.384;2023-04-24T03:39:14;13.35;;;4.35;;
60917;SDS011;46792;38.854;-9.384;2023-04-24T03:42:14;16.55;;;5.22;;
60917;SDS011;46792;38.854;-9.384;2023-04-24T03:45:14;24.33;;;7.65;;
60917;SDS011;46792;38.854;-9.384;2023-04-24T03:48:30;12.52;;;4.35;;
60917;SDS011;46792;38.854;-9.384;2023-04-24T03:51:29;11.40;;;3.83;;
60917;SDS011;46792;38.854;-9.384;2023-04-24T03:54:28;18.13;;;4.63;;
60917;SDS011;46792;38.854;-9.384;2023-04-24T03:57:27;12.77;;;4.63;;
60917;SDS011;46792;38.854;-9.384;2023-04-24T04:00:28;11.95;;;4.03;;
60917;SDS011;46792;38.854;-9.384;2023-04-24T04:03:42;14.52;;;4.28;;
60917;SDS011;46792;38.854;-9.384;2023-04-24T04:07:18;17.60;;;4.43;;
60917;SDS011;46792;38.854;-9.384;2023-04-24T04:13:54;17.80;;;5.00;;
60917;SDS011;46792;38.854;-9.384;2023-04-24T04:16:54;13.32;;;5.18;;
60917;SDS011;46792;38.854;-9.384;2023-04-24T04:19:54;9.57;;;4.75;;
60917;SDS011;46792;38.854;-9.384;2023-04-24T04:22:53;11.30;;;4.63;;
60917;SDS011;46792;38.854;-9.384;2023-04-24T04:26:02;16.88;;;4.40;;
60917;SDS011;46792;38.854;-9.384;2023-04-24T04:29:05;11.35;;;4.47;;
60917;SDS011;46792;38.854;-9.384;2023-04-24T04:32:11;17.80;;;4.53;;
60917;SDS011;46792;38.854;-9.384;2023-04-24T04:35:33;11.82;;;3.10;;
60917;SDS011;46792;38.854;-9.384;2023-04-24T04:38:43;10.77;;;4.28;;
60917;SDS011;46792;38.854;-9.384;2023-04-24T04:42:05;9.63;;;4.40;;
60917;SDS011;46792;38.854;-9.384;2023-04-24T04:45:23;17.35;;;3.65;;
60917;SDS011;46792;38.854;-9.384;2023-04-24T04:48:44;14.38;;;3.95;;
60917;SDS011;46792;38.854;-9.384;2023-04-24T04:52:02;12.90;;;3.78;;
60917;SDS011;46792;38.854;-9.384;2023-04-24T04:55:06;14.05;;;4.22;;
60917;SDS011;46792;38.854;-9.384;2023-04-24T04:58:24;13.63;;;5.50;;
60917;SDS011;46792;38.854;-9.384;2023-04-24T05:01:30;16.70;;;4.60;;
60917;SDS011;46792;38.854;-9.384;2023-04-24T05:04:29;17.65;;;4.47;;
60917;SDS011;46792;38.854;-9.384;2023-04-24T05:07:28;18.90;;;4.80;;
60917;SDS011;46792;38.854;-9.384;2023-04-24T05:10:46;13.63;;;4.60;;
60917;SDS011;46792;38.854;-9.384;2023-04-24T05:13:45;18.83;;;4.30;;
60917;SDS011;46792;38.854;-9.384;2023-04-24T05:16:46;10.80;;;4.20;;
60917;SDS011;46792;38.854;-9.384;2023-04-24T05:20:04;15.10;;;4.65;;
60917;SDS011;46792;38.854;-9.384;2023-04-24T05:23:04;9.55;;;3.90;;
60917;SDS011;46792;38.854;-9.384;2023-04-24T05:26:29;16.38;;;3.88;;
60917;SDS011;46792;38.854;-9.384;2023-04-24T05:29:28;15.23;;;4.63;;
60917;SDS011;46792;38.854;-9.384;2023-04-24T05:32:46;13.60;;;4.25;;
60917;SDS011;46792;38.854;-9.384;2023-04-24T05:36:03;12.10;;;4.40;;
60917;SDS011;46792;38.854;-9.384;2023-04-24T05:39:03;21.17;;;4.07;;
60917;SDS011;46792;38.854;-9.384;2023-04-24T05:42:05;14.68;;;4.75;;
60917;SDS011;46792;38.854;-9.384;2023-04-24T05:45:23;12.80;;;4.03;;
60917;SDS011;46792;38.854;-9.384;2023-04-24T05:48:22;12.73;;;4.13;;
60917;SDS011;46792;38.854;-9.384;2023-04-24T05:51:23;19.13;;;5.43;;
60917;SDS011;46792;38.854;-9.384;2023-04-24T05:54:41;16.10;;;4.95;;
60917;SDS011;46792;38.854;-9.384;2023-04-24T05:57:40;14.77;;;4.78;;
60917;SDS011;46792;38.854;-9.384;2023-04-24T06:00:40;10.80;;;4.63;;
60917;SDS011;46792;38.854;-9.384;2023-04-24T06:03:45;16.95;;;4.13;;
60917;SDS011;46792;38.854;-9.384;2023-04-24T06:07:03;9.77;;;4.38;;
60917;SDS011;46792;38.854;-9.384;2023-04-24T06:10:07;19.45;;;5.32;;
60917;SDS011;46792;38.854;-9.384;2023-04-24T06:13:06;20.13;;;4.93;;
60917;SDS011;46792;38.854;-9.384;2023-04-24T06:19:29;11.63;;;4.50;;
60917;SDS011;46792;38.854;-9.384;2023-04-24T06:22:29;16.10;;;4.93;;
60917;SDS011;46792;38.854;-9.384;2023-04-24T06:25:29;23.10;;;5.63;;
60917;SDS011;46792;38.854;-9.384;2023-04-24T06:28:28;8.07;;;4.22;;
60917;SDS011;46792;38.854;-9.384;2023-04-24T06:35:07;20.55;;;5.97;;
60917;SDS011;46792;38.854;-9.384;2023-04-24T06:38:06;11.80;;;4.97;;
60917;SDS011;46792;38.854;-9.384;2023-04-24T06:41:24;15.15;;;4.85;;
60917;SDS011;46792;38.854;-9.384;2023-04-24T06:44:24;16.48;;;5.90;;
60917;SDS011;46792;38.854;-9.384;2023-04-24T06:47:23;16.25;;;5.18;;
60917;SDS011;46792;38.854;-9.384;2023-04-24T06:50:23;19.83;;;5.47;;
60917;SDS011;46792;38.854;-9.384;2023-04-24T06:53:23;16.40;;;5.60;;
60917;SDS011;46792;38.854;-9.384;2023-04-24T06:56:22;17.35;;;6.20;;
60917;SDS011;46792;38.854;-9.384;2023-04-24T06:59:22;26.27;;;6.22;;
60917;SDS011;46792;38.854;-9.384;2023-04-24T07:02:21;13.38;;;5.68;;
60917;SDS011;46792;38.854;-9.384;2023-04-24T07:05:39;20.08;;;5.68;;
60917;SDS011;46792;38.854;-9.384;2023-04-24T07:08:39;9.82;;;5.15;;
60917;SDS011;46792;38.854;-9.384;2023-04-24T07:11:41;13.65;;;5.45;;
60917;SDS011;46792;38.854;-9.384;2023-04-24T07:14:40;19.90;;;5.90;;
60917;SDS011;46792;38.854;-9.384;2023-04-24T07:17:41;27.20;;;5.88;;
60917;SDS011;46792;38.854;-9.384;2023-04-24T07:20:40;23.58;;;5.13;;
60917;SDS011;46792;38.854;-9.384;2023-04-24T07:23:39;16.83;;;5.40;;
60917;SDS011;46792;38.854;-9.384;2023-04-24T07:26:38;14.07;;;4.97;;
60917;SDS011;46792;38.854;-9.384;2023-04-24T07:29:38;22.40;;;5.05;;
60917;SDS011;46792;38.854;-9.384;2023-04-24T07:32:37;16.85;;;5.13;;
60917;SDS011;46792;38.854;-9.384;2023-04-24T07:35:54;13.13;;;4.55;;
60917;SDS011;46792;38.854;-9.384;2023-04-24T07:42:33;15.02;;;5.68;;
60917;SDS011;46792;38.854;-9.384;2023-04-24T07:45:45;24.70;;;5.82;;
60917;SDS011;46792;38.854;-9.384;2023-04-24T07:48:44;16.40;;;5.55;;
60917;SDS011;46792;38.854;-9.384;2023-04-24T07:51:43;16.05;;;5.22;;
60917;SDS011;46792;38.854;-9.384;2023-04-24T07:54:42;16.75;;;6.40;;
60917;SDS011;46792;38.854;-9.384;2023-04-24T07:57:41;15.23;;;4.82;;
60917;SDS011;46792;38.854;-9.384;2023-04-24T08:00:40;19.08;;;5.80;;
60917;SDS011;46792;38.854;-9.384;2023-04-24T08:03:40;17.35;;;5.47;;
60917;SDS011;46792;38.854;-9.384;2023-04-24T08:06:39;18.08;;;5.70;;
60917;SDS011;46792;38.854;-9.384;2023-04-24T08:09:38;9.50;;;5.47;;
60917;SDS011;46792;38.854;-9.384;2023-04-24T08:12:37;15.98;;;7.05;;
60917;SDS011;46792;38.854;-9.384;2023-04-24T08:15:37;13.75;;;6.10;;
60917;SDS011;46792;38.854;-9.384;2023-04-24T08:18:36;22.27;;;5.68;;
60917;SDS011;46792;38.854;-9.384;2023-04-24T08:21:35;29.23;;;5.30;;
60917;SDS011;46792;38.854;-9.384;2023-04-24T08:24:53;18.63;;;5.10;;
60917;SDS011;46792;38.854;-9.384;2023-04-24T08:28:11;12.38;;;4.00;;
60917;SDS011;46792;38.854;-9.384;2023-04-24T08:31:11;16.02;;;4.50;;
60917;SDS011;46792;38.854;-9.384;2023-04-24T08:34:10;14.60;;;5.15;;
60917;SDS011;46792;38.854;-9.384;2023-04-24T08:40:28;9.32;;;3.97;;
60917;SDS011;46792;38.854;-9.384;2023-04-24T08:43:34;21.63;;;4.95;;
60917;SDS011;46792;38.854;-9.384;2023-04-24T08:46:34;14.68;;;4.78;;
60917;SDS011;46792;38.854;-9.384;2023-04-24T08:49:36;11.48;;;3.65;;
60917;SDS011;46792;38.854;-9.384;2023-04-24T08:52:36;14.18;;;3.67;;
60917;SDS011;46792;38.854;-9.384;2023-04-24T08:55:37;16.05;;;3.55;;
60917;SDS011;46792;38.854;-9.384;2023-04-24T08:58:39;20.35;;;3.50;;
60917;SDS011;46792;38.854;-9.384;2023-04-24T09:01:38;13.52;;;3.67;;
60917;SDS011;46792;38.854;-9.384;2023-04-24T09:04:41;13.57;;;3.83;;
60917;SDS011;46792;38.854;-9.384;2023-04-24T09:07:49;14.95;;;3.40;;
60917;SDS011;46792;38.854;-9.384;2023-04-24T09:10:54;18.15;;;4.03;;
60917;SDS011;46792;38.854;-9.384;2023-04-24T09:13:57;11.70;;;4.15;;
60917;SDS011;46792;38.854;-9.384;2023-04-24T09:16:57;10.63;;;3.67;;
60917;SDS011;46792;38.854;-9.384;2023-04-24T09:19:56;22.58;;;3.75;;
